createdAt,value
2023-04-21T00:03:04.555Z,100204.97
2023-04-21T00:08:08.136Z,100196.13
2023-04-21T00:13:10.254Z,100196.03
2023-04-21T00:18:12.686Z,100198.25
2023-04-21T00:23:16.416Z,100201.03
2023-04-21T00:28:18.284Z,100198.06
2023-04-21T00:33:19.917Z,100197.56
2023-04-21T00:38:23.043Z,100187.84
2023-04-21T00:43:24.840Z,100190.00
2023-04-21T00:48:26.695Z,100177.34
2023-04-21T00:53:29.884Z,100182.50
2023-04-21T00:58:33.019Z,100174.25
2023-04-21T01:03:35.695Z,100187.13
2023-04-21T01:08:39.059Z,100181.41
2023-04-21T01:13:41.040Z,100181.03
2023-04-21T01:18:42.802Z,100189.63
2023-04-21T01:23:46.164Z,100193.38
2023-04-21T01:28:47.907Z,100181.38
2023-04-21T01:33:50.045Z,100185.47
2023-04-21T01:38:53.135Z,100174.81
2023-04-21T01:43:54.724Z,100180.00
2023-04-21T01:48:56.942Z,100176.16
2023-04-21T01:54:00.359Z,100177.53
2023-04-21T01:59:02.637Z,100177.59
2023-04-21T02:04:06.127Z,100180.22
2023-04-21T02:09:09.579Z,100174.44
2023-04-21T02:14:11.680Z,100184.66
2023-04-21T02:19:13.887Z,100189.00
2023-04-21T02:24:17.641Z,100182.81
2023-04-21T02:29:19.990Z,100185.16
2023-04-21T02:34:22.349Z,100181.69
2023-04-21T02:39:26.031Z,100177.88
2023-04-21T02:44:27.767Z,100178.28
2023-04-21T02:49:29.500Z,100176.13
2023-04-21T02:54:35.788Z,100177.38
2023-04-21T02:59:37.431Z,100181.91
2023-04-21T03:04:39.093Z,100190.41
2023-04-21T03:09:42.182Z,100188.53
2023-04-21T03:14:43.780Z,100191.34
2023-04-21T03:19:45.693Z,100183.63
2023-04-21T03:24:48.869Z,100192.34
2023-04-21T03:29:50.482Z,100182.09
2023-04-21T03:34:52.173Z,100177.66
2023-04-21T03:39:55.250Z,100186.75
2023-04-21T03:44:56.908Z,100192.25
2023-04-21T03:49:58.605Z,100184.38
2023-04-21T03:55:01.591Z,100181.75
2023-04-21T04:00:03.778Z,100187.09
2023-04-21T04:05:06.231Z,100184.34
2023-04-21T04:10:09.352Z,100184.84
2023-04-21T04:15:11.302Z,100188.81
2023-04-21T04:20:13.077Z,100184.09
2023-04-21T04:25:16.363Z,100185.88
2023-04-21T04:30:18.019Z,100175.91
2023-04-21T04:35:20.072Z,100180.44
2023-04-21T04:40:23.514Z,100176.25
2023-04-21T04:45:26.540Z,100182.97
2023-04-21T04:50:28.220Z,100176.06
2023-04-21T04:55:31.453Z,100181.59
2023-04-21T05:00:33.187Z,100190.75
2023-04-21T05:05:34.818Z,100199.44
2023-04-21T05:10:37.822Z,100188.13
2023-04-21T05:15:39.476Z,100188.44
2023-04-21T05:20:41.559Z,100193.78
2023-04-21T05:25:44.714Z,100194.22
2023-04-21T05:30:46.381Z,100210.56
2023-04-21T05:35:48.190Z,100216.97
2023-04-21T05:40:54.902Z,100216.72
2023-04-21T05:45:57.000Z,100194.34
2023-04-21T05:51:08.228Z,100199.88
2023-04-21T05:56:12.115Z,100213.16
2023-04-21T06:01:13.867Z,100205.66
2023-04-21T06:06:15.653Z,100205.75
2023-04-21T06:11:21.798Z,100187.03
2023-04-21T06:16:23.531Z,100187.69
2023-04-21T06:21:25.207Z,100183.44
2023-04-21T06:26:28.377Z,100187.22
2023-04-21T06:31:30.035Z,100194.09
2023-04-21T06:36:31.749Z,100209.56
2023-04-21T06:41:34.796Z,100198.47
2023-04-21T06:46:36.455Z,100198.72
2023-04-21T06:51:38.317Z,100207.06
2023-04-21T06:56:41.475Z,100200.75
2023-04-21T07:01:43.352Z,100203.34
2023-04-21T07:06:45.043Z,100206.16
2023-04-21T07:11:48.188Z,100202.59
2023-04-21T07:16:49.997Z,100201.34
2023-04-21T07:21:51.659Z,100199.50
2023-04-21T07:26:55.185Z,100204.91
2023-04-21T07:31:57.049Z,100197.38
2023-04-21T07:36:58.962Z,100207.91
2023-04-21T07:42:01.990Z,100214.44
2023-04-21T07:47:03.650Z,100217.09
2023-04-21T07:52:05.313Z,100213.72
2023-04-21T07:57:08.474Z,100209.34
2023-04-21T08:02:10.166Z,100206.53
2023-04-21T08:07:12.037Z,100204.50
2023-04-21T08:12:15.301Z,100200.53
2023-04-21T08:17:17.065Z,100189.97
2023-04-21T08:22:18.801Z,100179.13
2023-04-21T08:27:21.892Z,100178.47
2023-04-21T08:32:23.643Z,100171.22
2023-04-21T08:37:25.346Z,100166.78
2023-04-21T08:42:28.395Z,100164.25
2023-04-21T08:47:32.064Z,100154.53
2023-04-21T08:52:33.720Z,100148.66
2023-04-21T08:57:36.652Z,100141.56
2023-04-21T09:03:00.235Z,100158.69
2023-04-21T09:08:11.382Z,100140.72
2023-04-21T09:13:14.729Z,100132.34
2023-04-21T09:18:19.374Z,100134.28
2023-04-21T09:23:21.271Z,100131.63
2023-04-21T09:28:31.286Z,100129.97
2023-04-21T09:38:36.199Z,100107.34
2023-04-21T09:43:39.212Z,100103.38
2023-04-21T09:48:44.354Z,100108.50
2023-04-21T09:53:49.364Z,100091.00
2023-04-21T09:58:54.764Z,100080.84
2023-04-21T10:03:56.438Z,100076.34
2023-04-21T10:08:58.953Z,100063.34
2023-04-21T10:14:02.300Z,100051.47
2023-04-21T10:19:23.216Z,100057.13
2023-04-21T10:24:28.855Z,100048.44
2023-04-21T10:29:48.054Z,100050.16
2023-04-21T10:34:56.827Z,100039.53
2023-04-21T10:39:58.526Z,100039.28
2023-04-21T10:45:11.949Z,100035.53
2023-04-21T10:50:16.190Z,100023.19
2023-04-21T10:55:17.891Z,100024.16
2023-04-21T11:00:24.376Z,100001.97
2023-04-21T11:05:34.857Z,100004.81
2023-04-21T11:10:48.717Z,99995.28
2023-04-21T11:16:00.544Z,99990.97
2023-04-21T11:21:10.328Z,99993.41
2023-04-21T11:26:12.114Z,99975.94
2023-04-21T11:31:15.888Z,99970.97
2023-04-21T11:36:21.582Z,99961.19
2023-04-21T11:41:24.253Z,99944.63
2023-04-21T11:46:28.480Z,99943.56
2023-04-21T11:51:34.401Z,99928.88
2023-04-21T11:56:37.051Z,99926.06
2023-04-21T12:01:47.610Z,99926.59
2023-04-21T12:06:57.289Z,99936.53
2023-04-21T12:11:59.566Z,99954.69
2023-04-21T12:17:02.595Z,99933.88
2023-04-21T12:22:07.841Z,99945.00
2023-04-21T12:27:09.814Z,99955.59
2023-04-21T12:32:12.871Z,99933.84
2023-04-21T12:37:14.619Z,99929.34
2023-04-21T12:42:16.317Z,99924.25
2023-04-21T12:47:19.302Z,99918.34
2023-04-21T12:52:20.954Z,99919.88
2023-04-21T12:57:22.653Z,99921.41
2023-04-21T13:02:25.829Z,99905.53
2023-04-21T13:07:27.614Z,99904.56
2023-04-21T13:12:29.243Z,99917.34
2023-04-21T13:17:32.313Z,99912.69
2023-04-21T13:22:33.973Z,99915.84
2023-04-21T13:27:35.660Z,99913.13
2023-04-21T13:32:39.196Z,99898.16
2023-04-21T13:37:41.343Z,99891.97
2023-04-21T13:42:43.016Z,99885.03
2023-04-21T13:47:46.068Z,99874.28
2023-04-21T13:52:47.710Z,99873.25
2023-04-21T13:57:49.406Z,99871.56
2023-04-21T14:02:52.579Z,99870.06
2023-04-21T14:07:54.782Z,99853.47
2023-04-21T14:12:56.594Z,99850.09
2023-04-21T14:17:59.657Z,99839.97
2023-04-21T14:23:01.429Z,99837.41
2023-04-21T14:28:03.178Z,99827.91
2023-04-21T14:33:06.491Z,99831.00
2023-04-21T14:38:08.202Z,99836.75
2023-04-21T14:43:09.904Z,99828.66
2023-04-21T14:48:13.043Z,99829.59
2023-04-21T14:53:14.750Z,99810.69
2023-04-21T14:58:16.498Z,99806.47
2023-04-21T15:03:19.628Z,99798.94
2023-04-21T15:08:21.364Z,99784.66
2023-04-21T15:13:23.205Z,99791.13
2023-04-21T15:18:26.267Z,99782.22
2023-04-21T15:23:27.923Z,99769.16
2023-04-21T15:28:29.568Z,99770.97
2023-04-21T15:33:33.133Z,99763.47
2023-04-21T15:38:34.789Z,99750.56
2023-04-21T15:43:36.439Z,99741.97
2023-04-21T15:48:39.494Z,99743.03
2023-04-21T15:53:41.126Z,99745.44
2023-04-21T15:58:43.458Z,99744.03
2023-04-21T16:03:46.591Z,99739.72
2023-04-21T16:08:48.450Z,99729.50
2023-04-21T16:13:50.731Z,99716.84
2023-04-21T16:18:53.947Z,99707.53
2023-04-21T16:23:55.722Z,99715.84
2023-04-21T16:28:57.424Z,99696.47
2023-04-21T16:34:00.675Z,99693.75
2023-04-21T16:39:02.565Z,99700.41
2023-04-21T16:44:04.339Z,99695.88
2023-04-21T16:49:07.491Z,99700.38
2023-04-21T16:54:09.243Z,99701.31
2023-04-21T16:59:10.960Z,99720.13
2023-04-21T17:04:16.684Z,99725.56
2023-04-21T17:09:18.440Z,99731.94
2023-04-21T17:14:20.091Z,99743.56
2023-04-21T17:19:26.057Z,99746.47
2023-04-21T17:24:33.095Z,99758.56
2023-04-21T17:29:39.889Z,99768.72
2023-04-21T17:34:42.911Z,99782.19
2023-04-21T17:39:44.549Z,99781.03
2023-04-21T17:44:46.237Z,99787.34
2023-04-21T17:49:49.422Z,99850.75
2023-04-21T17:54:51.100Z,99904.53
2023-04-21T17:59:59.161Z,99890.91
2023-04-21T18:05:02.448Z,99811.38
2023-04-21T18:10:04.689Z,99704.72
2023-04-21T18:15:07.736Z,99736.69
2023-04-21T18:20:11.609Z,99778.06
2023-04-21T18:25:13.346Z,99769.44
2023-04-21T18:30:15.154Z,99765.53
2023-04-21T18:35:18.288Z,99753.88
2023-04-21T18:40:20.110Z,99756.00
2023-04-21T18:45:21.755Z,99761.81
2023-04-21T18:50:26.011Z,99761.66
2023-04-21T18:55:27.725Z,99772.22
2023-04-21T19:00:29.557Z,99777.22
2023-04-21T19:05:32.619Z,99783.63
2023-04-21T19:10:34.610Z,99796.19
2023-04-21T19:15:36.219Z,99787.63
2023-04-21T19:20:39.474Z,99794.88
2023-04-21T19:25:41.283Z,99793.28
2023-04-21T19:30:42.884Z,99800.84
2023-04-21T19:35:46.016Z,99813.53
2023-04-21T19:40:47.668Z,99809.91
2023-04-21T19:45:49.571Z,99815.75
2023-04-21T19:50:52.612Z,99817.72
2023-04-21T19:55:54.300Z,99824.66
2023-04-21T20:00:55.918Z,99826.22
2023-04-21T20:05:58.880Z,99816.34
2023-04-21T20:11:00.515Z,99821.63
2023-04-21T20:16:02.260Z,99824.97
2023-04-21T20:21:05.616Z,99827.72
2023-04-21T20:26:07.318Z,99825.91
2023-04-21T20:31:09.046Z,99819.13
2023-04-21T20:36:12.150Z,99808.84
2023-04-21T20:41:13.824Z,99796.78
2023-04-21T20:46:15.576Z,99798.56
2023-04-21T20:51:18.658Z,99788.03
2023-04-21T20:56:20.312Z,99803.97
2023-04-21T21:01:22.017Z,99812.47
2023-04-21T21:06:25.327Z,99808.81
2023-04-21T21:11:27.021Z,99810.06
2023-04-21T21:16:28.753Z,99811.19
2023-04-21T21:21:31.722Z,99810.38
2023-04-21T21:26:33.864Z,99818.53
2023-04-21T21:31:35.497Z,99821.63
2023-04-21T21:36:38.602Z,99817.41
2023-04-21T21:41:40.389Z,99817.41
2023-04-21T21:46:42.628Z,99814.97
2023-04-21T21:51:45.622Z,99811.75
2023-04-21T21:56:47.603Z,99799.41
2023-04-21T22:01:49.342Z,99800.41
2023-04-21T22:06:52.490Z,99800.53
2023-04-21T22:11:55.147Z,99799.00
2023-04-21T22:16:59.657Z,99805.09
2023-04-21T22:22:02.901Z,99801.34
2023-04-21T22:27:04.582Z,99818.16
2023-04-21T22:32:06.274Z,99804.38
2023-04-21T22:37:09.408Z,99813.38
2023-04-21T22:42:11.114Z,99816.31
2023-04-21T22:47:12.978Z,99816.03
2023-04-21T22:52:16.212Z,99810.72
2023-04-21T22:57:18.047Z,99816.53
2023-04-21T23:02:19.776Z,99810.88
2023-04-21T23:07:22.912Z,99804.50
2023-04-21T23:12:24.693Z,99801.19
2023-04-21T23:17:28.173Z,99809.50
2023-04-21T23:22:33.645Z,99801.72
2023-04-21T23:27:35.401Z,99796.84
2023-04-21T23:32:37.113Z,99794.50
2023-04-21T23:37:40.312Z,99798.69
2023-04-21T23:42:42.177Z,99793.50
2023-04-21T23:47:49.292Z,99803.38
2023-04-21T23:52:52.388Z,99804.06
2023-04-21T23:57:54.013Z,99804.47
